createdAt,value
2017-11-24T00:00:21.333Z,0
2017-11-24T00:01:20.904Z,0
2017-11-24T00:02:20.912Z,0
2017-11-24T00:03:20.643Z,0
2017-11-24T00:04:20.867Z,0
2017-11-24T00:05:20.607Z,0
2017-11-24T00:06:20.864Z,0
2017-11-24T00:07:20.811Z,0
2017-11-24T00:08:20.825Z,0
2017-11-24T00:09:20.561Z,0
2017-11-24T00:10:20.831Z,0
2017-11-24T00:11:20.840Z,0
2017-11-24T00:12:20.806Z,0
2017-11-24T00:13:20.552Z,0
2017-11-24T00:14:20.548Z,0
2017-11-24T00:15:20.817Z,0
2017-11-24T00:16:20.797Z,0
2017-11-24T00:17:20.512Z,0
2017-11-24T00:18:20.759Z,0
2017-11-24T00:19:20.779Z,0
2017-11-24T00:20:20.741Z,0
2017-11-24T00:21:20.738Z,0
2017-11-24T00:22:20.737Z,0
2017-11-24T00:23:20.497Z,0
2017-11-24T00:24:20.465Z,0
2017-11-24T00:25:20.459Z,0
2017-11-24T00:26:20.176Z,0
2017-11-24T00:27:20.688Z,0
2017-11-24T00:28:20.703Z,0
2017-11-24T00:29:20.699Z,0
2017-11-24T00:30:20.667Z,0
2017-11-24T00:31:20.407Z,0
2017-11-24T00:32:20.642Z,0
2017-11-24T00:33:20.686Z,0
2017-11-24T00:34:20.646Z,0
2017-11-24T00:35:20.648Z,0
2017-11-24T00:36:20.349Z,0
2017-11-24T00:37:20.350Z,0
2017-11-24T00:38:20.349Z,0
2017-11-24T00:39:20.405Z,0
2017-11-24T00:40:20.612Z,0
2017-11-24T00:41:20.333Z,0
2017-11-24T00:42:20.601Z,0
2017-11-24T00:43:20.313Z,0
2017-11-24T00:44:20.582Z,0
2017-11-24T00:45:20.293Z,0
2017-11-24T00:46:20.570Z,0
2017-11-24T00:47:20.267Z,0
2017-11-24T00:48:20.003Z,0
2017-11-24T00:49:20.253Z,0
2017-11-24T00:50:20.260Z,0
2017-11-24T00:51:20.493Z,0
2017-11-24T00:52:20.508Z,0
2017-11-24T00:53:20.532Z,0
2017-11-24T00:54:20.502Z,0
2017-11-24T00:55:20.450Z,0
2017-11-24T00:56:20.486Z,0
2017-11-24T00:57:20.477Z,0
2017-11-24T00:58:20.440Z,0
2017-11-24T00:59:20.438Z,0
2017-11-24T01:00:20.418Z,0
2017-11-24T01:01:20.450Z,0
2017-11-24T01:02:20.167Z,0
2017-11-24T01:03:20.392Z,0
2017-11-24T01:04:20.388Z,0
2017-11-24T01:05:20.364Z,0
2017-11-24T01:06:20.130Z,0
2017-11-24T01:07:20.367Z,0
2017-11-24T01:08:20.372Z,0
2017-11-24T01:09:20.368Z,0
2017-11-24T01:10:20.349Z,0
2017-11-24T01:11:20.351Z,0
2017-11-24T01:12:20.314Z,0
2017-11-24T01:13:20.312Z,0
2017-11-24T01:14:20.321Z,0
2017-11-24T01:15:20.334Z,0
2017-11-24T01:16:20.037Z,0
2017-11-24T01:17:20.284Z,0
2017-11-24T01:18:19.990Z,0
2017-11-24T01:19:20.284Z,0
2017-11-24T01:20:20.277Z,0
2017-11-24T01:21:20.000Z,0
2017-11-24T01:22:20.244Z,0
2017-11-24T01:23:19.971Z,0
2017-11-24T01:24:20.236Z,0
2017-11-24T01:25:20.222Z,0
2017-11-24T01:26:20.213Z,0
2017-11-24T01:27:20.189Z,0
2017-11-24T01:28:20.227Z,0
2017-11-24T01:29:19.924Z,0
2017-11-24T01:30:20.186Z,0
2017-11-24T01:31:20.175Z,0
2017-11-24T01:32:20.176Z,0
2017-11-24T01:33:20.183Z,0
2017-11-24T01:34:20.170Z,0
2017-11-24T01:35:20.121Z,0
2017-11-24T01:36:19.875Z,0
2017-11-24T01:37:19.868Z,0
2017-11-24T01:38:20.107Z,0
2017-11-24T01:39:20.119Z,0
2017-11-24T01:40:20.122Z,0
2017-11-24T01:41:19.814Z,0
2017-11-24T01:42:20.102Z,0
2017-11-24T01:43:20.049Z,0
2017-11-24T01:44:19.795Z,0
2017-11-24T01:45:20.041Z,0
2017-11-24T01:46:20.058Z,0
2017-11-24T01:47:20.016Z,0
2017-11-24T01:48:20.024Z,0
2017-11-24T01:49:20.022Z,0
2017-11-24T01:50:20.041Z,0
2017-11-24T01:51:19.997Z,0
2017-11-24T01:52:19.996Z,0
2017-11-24T01:53:20.034Z,0
2017-11-24T01:54:19.730Z,0
2017-11-24T01:55:19.978Z,0
2017-11-24T01:56:19.977Z,0
2017-11-24T01:57:19.960Z,0
2017-11-24T01:58:19.968Z,0
2017-11-24T01:59:19.952Z,0
2017-11-24T02:00:19.920Z,0
2017-11-24T02:01:19.930Z,0
2017-11-24T02:02:19.950Z,0
2017-11-24T02:03:19.932Z,0
2017-11-24T02:04:19.876Z,0
2017-11-24T02:05:19.883Z,0
2017-11-24T02:06:19.624Z,0
2017-11-24T02:07:19.914Z,0
2017-11-24T02:08:19.880Z,0
2017-11-24T02:09:19.872Z,0
2017-11-24T02:10:19.583Z,0
2017-11-24T02:11:19.890Z,0
2017-11-24T02:12:19.819Z,0
2017-11-24T02:13:19.571Z,0
2017-11-24T02:14:19.821Z,0
2017-11-24T02:15:19.552Z,0
2017-11-24T02:16:19.819Z,0
2017-11-24T02:17:19.797Z,0
2017-11-24T02:18:19.819Z,0
2017-11-24T02:19:19.816Z,0
2017-11-24T02:20:19.788Z,0
2017-11-24T02:21:19.776Z,0
2017-11-24T02:22:19.746Z,0
2017-11-24T02:23:19.773Z,0
2017-11-24T02:24:19.489Z,0
2017-11-24T02:25:19.752Z,0
2017-11-24T02:26:19.478Z,0
2017-11-24T02:27:19.746Z,0
2017-11-24T02:28:19.716Z,0
2017-11-24T02:29:19.709Z,0
2017-11-24T02:30:19.713Z,0
2017-11-24T02:31:19.744Z,0
2017-11-24T02:32:19.694Z,0
2017-11-24T02:33:19.683Z,0
2017-11-24T02:34:19.435Z,0
2017-11-24T02:35:19.659Z,0
2017-11-24T02:36:19.697Z,0
2017-11-24T02:37:19.673Z,0
2017-11-24T02:38:19.671Z,0
2017-11-24T02:39:19.685Z,0
2017-11-24T02:40:19.657Z,0
2017-11-24T02:41:19.655Z,0
2017-11-24T02:42:19.363Z,0
2017-11-24T02:43:19.613Z,0
2017-11-24T02:44:19.616Z,0
2017-11-24T02:45:19.337Z,0
2017-11-24T02:46:19.602Z,0
2017-11-24T02:47:19.600Z,0
2017-11-24T02:48:19.591Z,0
2017-11-24T02:49:19.558Z,0
2017-11-24T02:50:19.336Z,0
2017-11-24T02:51:19.558Z,0
2017-11-24T02:52:19.568Z,0
2017-11-24T02:53:19.314Z,0
2017-11-24T02:54:19.545Z,0
2017-11-24T02:55:19.242Z,0
2017-11-24T02:56:19.516Z,0
2017-11-24T02:57:19.508Z,0
2017-11-24T02:58:19.525Z,0
2017-11-24T02:59:19.485Z,0
2017-11-24T03:00:19.231Z,0
2017-11-24T03:01:19.497Z,0
2017-11-24T03:02:19.483Z,0
2017-11-24T03:03:19.470Z,0
2017-11-24T03:04:19.466Z,0
2017-11-24T03:05:19.435Z,0
2017-11-24T03:06:19.442Z,0
2017-11-24T03:07:19.432Z,0
2017-11-24T03:08:19.470Z,0
2017-11-24T03:09:19.424Z,0
2017-11-24T03:10:19.425Z,0
2017-11-24T03:11:19.388Z,0
2017-11-24T03:12:19.408Z,0
2017-11-24T03:13:19.132Z,0
2017-11-24T03:14:19.118Z,0
2017-11-24T03:15:19.361Z,0
2017-11-24T03:16:19.374Z,0
2017-11-24T03:17:19.362Z,0
2017-11-24T03:18:19.338Z,0
2017-11-24T03:19:19.354Z,0
2017-11-24T03:20:19.364Z,0
2017-11-24T03:21:19.315Z,0
2017-11-24T03:22:19.318Z,0
2017-11-24T03:23:19.299Z,0
2017-11-24T03:24:19.314Z,0
2017-11-24T03:25:19.297Z,0
2017-11-24T03:26:19.324Z,0
2017-11-24T03:27:19.264Z,0
2017-11-24T03:28:19.270Z,0
2017-11-24T03:29:19.274Z,0
2017-11-24T03:30:19.010Z,0
2017-11-24T03:31:19.272Z,0
2017-11-24T03:32:19.240Z,0
2017-11-24T03:33:19.269Z,0
2017-11-24T03:34:19.221Z,0
2017-11-24T03:35:19.229Z,0
2017-11-24T03:36:19.212Z,0
2017-11-24T03:37:19.221Z,0
2017-11-24T03:38:19.204Z,0
2017-11-24T03:39:19.185Z,0
2017-11-24T03:40:18.922Z,0
2017-11-24T03:41:18.645Z,0
2017-11-24T03:42:19.174Z,0
2017-11-24T03:43:19.166Z,0
2017-11-24T03:44:19.167Z,0
2017-11-24T03:45:19.117Z,0
2017-11-24T03:46:18.894Z,0
2017-11-24T03:47:19.117Z,0
2017-11-24T03:48:19.162Z,0
2017-11-24T03:49:19.128Z,0
2017-11-24T03:50:19.107Z,0
2017-11-24T03:51:19.084Z,0
2017-11-24T03:52:19.086Z,0
2017-11-24T03:53:19.089Z,0
2017-11-24T03:54:18.850Z,0
2017-11-24T03:55:19.057Z,0
2017-11-24T03:56:19.074Z,0
2017-11-24T03:57:19.049Z,0
2017-11-24T03:58:18.800Z,0
2017-11-24T03:59:19.025Z,0
2017-11-24T04:00:18.760Z,0
2017-11-24T04:01:18.756Z,0
2017-11-24T04:02:18.761Z,0
2017-11-24T04:03:18.980Z,0
2017-11-24T04:04:19.003Z,0
2017-11-24T04:05:18.974Z,0
2017-11-24T04:06:18.981Z,0
2017-11-24T04:07:18.978Z,0
2017-11-24T04:08:18.968Z,0
2017-11-24T04:09:18.964Z,0
2017-11-24T04:10:18.943Z,0
2017-11-24T04:11:18.953Z,0
2017-11-24T04:12:18.909Z,0
2017-11-24T04:13:18.667Z,0
2017-11-24T04:14:18.901Z,0
2017-11-24T04:15:18.916Z,0
2017-11-24T04:16:18.916Z,0
2017-11-24T04:17:18.914Z,0
2017-11-24T04:18:18.873Z,0
2017-11-24T04:19:18.888Z,0
2017-11-24T04:20:18.882Z,0
2017-11-24T04:21:18.603Z,0
2017-11-24T04:22:18.855Z,0
2017-11-24T04:23:18.576Z,0
2017-11-24T04:24:18.837Z,0
2017-11-24T04:25:18.834Z,0
2017-11-24T04:26:18.823Z,0
2017-11-24T04:27:18.566Z,0
2017-11-24T04:28:18.802Z,0
2017-11-24T04:29:18.800Z,0
2017-11-24T04:30:18.831Z,0
2017-11-24T04:31:18.797Z,0
2017-11-24T04:32:18.756Z,0
2017-11-24T04:33:18.783Z,0
2017-11-24T04:34:18.760Z,0
2017-11-24T04:35:18.503Z,0
2017-11-24T04:36:18.712Z,0
2017-11-24T04:37:18.212Z,0
2017-11-24T04:38:18.707Z,0
2017-11-24T04:39:18.745Z,0
2017-11-24T04:40:18.732Z,0
2017-11-24T04:41:18.719Z,0
2017-11-24T04:42:18.165Z,0
2017-11-24T04:43:18.683Z,0
2017-11-24T04:44:18.675Z,0
2017-11-24T04:45:18.664Z,0
2017-11-24T04:46:18.628Z,0
2017-11-24T04:47:18.654Z,0
2017-11-24T04:48:18.350Z,0
2017-11-24T04:49:18.385Z,0
2017-11-24T04:50:18.610Z,0
2017-11-24T04:51:18.631Z,0
2017-11-24T04:52:18.340Z,0
2017-11-24T04:53:18.624Z,0
2017-11-24T04:54:18.320Z,0
2017-11-24T04:55:18.594Z,0
2017-11-24T04:56:18.572Z,0
2017-11-24T04:57:18.292Z,0
2017-11-24T04:58:18.564Z,0
2017-11-24T04:59:18.297Z,0
2017-11-24T05:00:18.570Z,0
2017-11-24T05:01:18.254Z,0
2017-11-24T05:02:18.494Z,0
2017-11-24T05:03:18.526Z,0
2017-11-24T05:04:17.972Z,0
2017-11-24T05:05:18.513Z,0
2017-11-24T05:06:18.201Z,0
2017-11-24T05:07:18.471Z,0
2017-11-24T05:08:18.440Z,0
2017-11-24T05:09:18.446Z,0
2017-11-24T05:10:18.427Z,0
2017-11-24T05:11:18.455Z,0
2017-11-24T05:12:18.408Z,0
2017-11-24T05:13:18.409Z,0
2017-11-24T05:14:18.149Z,0
2017-11-24T05:15:18.407Z,0
2017-11-24T05:16:18.408Z,0
2017-11-24T05:17:18.115Z,0
2017-11-24T05:18:18.370Z,0
2017-11-24T05:19:18.377Z,0
2017-11-24T05:20:18.355Z,0
2017-11-24T05:21:18.369Z,0
2017-11-24T05:22:18.328Z,0
2017-11-24T05:23:18.085Z,0
2017-11-24T05:24:18.287Z,0
2017-11-24T05:25:18.285Z,0
2017-11-24T05:26:18.022Z,0
2017-11-24T05:27:18.291Z,0
2017-11-24T05:28:18.303Z,0
2017-11-24T05:29:18.269Z,0
2017-11-24T05:30:18.254Z,0
2017-11-24T05:31:18.255Z,0
2017-11-24T05:32:18.236Z,0
2017-11-24T05:33:18.260Z,0
2017-11-24T05:34:18.232Z,0
2017-11-24T05:35:18.210Z,0
2017-11-24T05:36:18.242Z,0
2017-11-24T05:37:17.949Z,0
2017-11-24T05:38:18.199Z,0
2017-11-24T05:39:17.929Z,0
2017-11-24T05:40:18.160Z,0
2017-11-24T05:41:18.149Z,0
2017-11-24T05:42:18.134Z,0
2017-11-24T05:43:18.156Z,0
2017-11-24T05:44:18.156Z,0
2017-11-24T05:45:17.856Z,0
2017-11-24T05:46:18.122Z,0
2017-11-24T05:47:18.099Z,0
2017-11-24T05:48:18.122Z,0
2017-11-24T05:49:18.145Z,0
2017-11-24T05:50:18.085Z,0
2017-11-24T05:51:18.057Z,0
2017-11-24T05:52:18.053Z,0
2017-11-24T05:53:17.782Z,0
2017-11-24T05:54:18.058Z,0
2017-11-24T05:55:18.043Z,0
2017-11-24T05:56:17.514Z,0
2017-11-24T05:57:18.052Z,0
2017-11-24T05:58:18.026Z,0
2017-11-24T05:59:17.994Z,0
2017-11-24T06:00:17.730Z,0
2017-11-24T06:01:17.980Z,0
2017-11-24T06:02:17.726Z,0
2017-11-24T06:03:17.960Z,0
2017-11-24T06:04:17.700Z,0
2017-11-24T06:05:17.950Z,0
2017-11-24T06:06:17.959Z,0
2017-11-24T06:07:17.927Z,0
2017-11-24T06:08:17.933Z,0
2017-11-24T06:09:17.888Z,0
2017-11-24T06:10:17.679Z,0
2017-11-24T06:11:17.896Z,0
2017-11-24T06:12:17.893Z,0
2017-11-24T06:13:17.868Z,0
2017-11-24T06:14:17.890Z,0
2017-11-24T06:15:17.832Z,0
2017-11-24T06:16:17.604Z,0
2017-11-24T06:17:17.854Z,0
2017-11-24T06:18:17.886Z,0
2017-11-24T06:19:17.849Z,0
2017-11-24T06:20:17.832Z,0
2017-11-24T06:21:17.825Z,0
2017-11-24T06:22:17.786Z,0
2017-11-24T06:23:17.823Z,0
2017-11-24T06:24:17.776Z,0
2017-11-24T06:25:17.518Z,0
2017-11-24T06:26:17.781Z,0
2017-11-24T06:27:17.518Z,0
2017-11-24T06:28:17.751Z,0
2017-11-24T06:29:17.741Z,0
2017-11-24T06:30:17.745Z,0
2017-11-24T06:31:17.706Z,0
2017-11-24T06:32:17.733Z,0
2017-11-24T06:33:17.716Z,0
2017-11-24T06:34:17.718Z,0
2017-11-24T06:35:17.711Z,5
2017-11-24T06:36:17.445Z,5
2017-11-24T06:37:17.405Z,5
2017-11-24T06:38:17.659Z,5
2017-11-24T06:39:17.664Z,5
2017-11-24T06:40:17.636Z,5
2017-11-24T06:41:17.665Z,5
2017-11-24T06:42:17.612Z,5
2017-11-24T06:43:17.655Z,5
2017-11-24T06:44:17.586Z,5
2017-11-24T06:45:17.597Z,5
2017-11-24T06:46:17.581Z,5
2017-11-24T06:47:17.596Z,5
2017-11-24T06:48:17.582Z,5
2017-11-24T06:49:17.577Z,5
2017-11-24T06:50:17.574Z,10
2017-11-24T06:51:17.587Z,10
2017-11-24T06:52:17.319Z,10
2017-11-24T06:53:17.559Z,10
2017-11-24T06:54:17.533Z,10
2017-11-24T06:55:17.565Z,15
2017-11-24T06:56:17.522Z,15
2017-11-24T06:57:17.539Z,20
2017-11-24T06:58:17.506Z,20
2017-11-24T06:59:17.523Z,20
2017-11-24T07:00:17.472Z,20
2017-11-24T07:01:17.480Z,15
2017-11-24T07:02:17.439Z,15
2017-11-24T07:03:17.773Z,15
2017-11-24T07:04:17.191Z,15
2017-11-24T07:05:17.469Z,15
2017-11-24T07:06:17.221Z,15
2017-11-24T07:07:17.431Z,15
2017-11-24T07:08:17.154Z,20
2017-11-24T07:09:17.415Z,25
2017-11-24T07:10:17.453Z,30
2017-11-24T07:11:17.412Z,30
2017-11-24T07:12:17.405Z,30
2017-11-24T07:13:17.370Z,30
2017-11-24T07:14:17.131Z,30
2017-11-24T07:15:17.361Z,35
2017-11-24T07:16:17.362Z,40
2017-11-24T07:17:17.348Z,40
2017-11-24T07:18:17.097Z,45
2017-11-24T07:19:17.330Z,45
2017-11-24T07:20:17.305Z,45
2017-11-24T07:21:17.024Z,50
2017-11-24T07:22:17.040Z,55
2017-11-24T07:23:17.292Z,55
2017-11-24T07:24:17.260Z,60
2017-11-24T07:25:17.244Z,60
2017-11-24T07:26:17.002Z,55
2017-11-24T07:27:17.005Z,50
2017-11-24T07:28:17.224Z,45
2017-11-24T07:29:17.236Z,40
2017-11-24T07:30:17.229Z,40
2017-11-24T07:31:17.235Z,45
2017-11-24T07:32:17.203Z,50
2017-11-24T07:33:16.969Z,55
2017-11-24T07:34:17.181Z,55
2017-11-24T07:35:16.905Z,55
2017-11-24T07:36:17.183Z,50
2017-11-24T07:37:16.906Z,55
2017-11-24T07:38:16.895Z,60
2017-11-24T07:39:16.670Z,80
2017-11-24T07:40:17.163Z,95
2017-11-24T07:41:16.886Z,100
2017-11-24T07:42:17.136Z,95
2017-11-24T07:43:17.136Z,95
2017-11-24T07:44:16.839Z,100
2017-11-24T07:45:17.118Z,95
2017-11-24T07:46:17.126Z,95
2017-11-24T07:47:17.104Z,100
2017-11-24T07:48:17.086Z,100
2017-11-24T07:49:17.364Z,100
2017-11-24T07:50:17.070Z,95
2017-11-24T07:51:17.062Z,95
2017-11-24T07:52:16.776Z,95
2017-11-24T07:53:17.062Z,100
2017-11-24T07:54:16.783Z,105
2017-11-24T07:55:17.034Z,115
2017-11-24T07:56:17.050Z,115
2017-11-24T07:57:17.041Z,115
2017-11-24T07:58:16.748Z,120
2017-11-24T07:59:16.760Z,120
2017-11-24T08:00:17.032Z,125
2017-11-24T08:01:17.001Z,130
2017-11-24T08:02:16.709Z,135
2017-11-24T08:03:17.029Z,140
2017-11-24T08:04:16.986Z,140
2017-11-24T08:05:16.965Z,140
2017-11-24T08:06:16.437Z,140
2017-11-24T08:07:16.667Z,140
2017-11-24T08:08:16.679Z,140
2017-11-24T08:09:16.947Z,140
2017-11-24T08:10:16.909Z,140
2017-11-24T08:11:16.915Z,145
2017-11-24T08:12:16.658Z,145
2017-11-24T08:13:16.886Z,140
2017-11-24T08:14:16.956Z,145
2017-11-24T08:15:16.639Z,150
2017-11-24T08:16:16.649Z,155
2017-11-24T08:17:16.894Z,150
2017-11-24T08:18:16.625Z,140
2017-11-24T08:19:16.900Z,140
2017-11-24T08:20:16.844Z,145
2017-11-24T08:21:16.589Z,150
2017-11-24T08:22:16.300Z,140
2017-11-24T08:23:16.842Z,140
2017-11-24T08:24:16.816Z,135
2017-11-24T08:25:16.849Z,130
2017-11-24T08:26:16.799Z,125
2017-11-24T08:27:16.831Z,130
2017-11-24T08:28:16.810Z,140
2017-11-24T08:29:16.502Z,155
2017-11-24T08:30:16.781Z,155
2017-11-24T08:31:16.791Z,135
2017-11-24T08:32:16.753Z,135
2017-11-24T08:33:16.733Z,135
2017-11-24T08:34:16.693Z,135
2017-11-24T08:35:16.717Z,135
2017-11-24T08:36:16.769Z,130
2017-11-24T08:37:16.746Z,130
2017-11-24T08:38:16.714Z,140
2017-11-24T08:39:16.693Z,140
2017-11-24T08:40:16.429Z,135
2017-11-24T08:41:16.716Z,135
2017-11-24T08:42:16.710Z,140
2017-11-24T08:43:16.417Z,135
2017-11-24T08:44:16.423Z,125
2017-11-24T08:45:16.694Z,120
2017-11-24T08:46:16.373Z,110
2017-11-24T08:47:16.648Z,105
2017-11-24T08:48:16.683Z,100
2017-11-24T08:49:16.224Z,110
2017-11-24T08:50:16.634Z,125
2017-11-24T08:51:16.828Z,125
2017-11-24T08:52:16.669Z,125
2017-11-24T08:53:16.873Z,135
2017-11-24T08:54:16.687Z,145
2017-11-24T08:55:16.689Z,150
2017-11-24T08:56:16.370Z,155
2017-11-24T08:57:16.652Z,170
2017-11-24T08:58:16.335Z,160
2017-11-24T08:59:16.614Z,160
2017-11-24T09:00:16.331Z,165
2017-11-24T09:01:16.568Z,170
2017-11-24T09:02:16.285Z,180
2017-11-24T09:03:16.530Z,180
2017-11-24T09:04:16.047Z,180
2017-11-24T09:05:16.278Z,165
2017-11-24T09:06:16.280Z,140
2017-11-24T09:07:16.564Z,115
2017-11-24T09:08:16.243Z,100
2017-11-24T09:09:16.499Z,85
2017-11-24T09:10:16.232Z,85
2017-11-24T09:11:16.532Z,90
2017-11-24T09:12:16.238Z,90
2017-11-24T09:13:16.453Z,90
2017-11-24T09:14:16.218Z,100
2017-11-24T09:15:16.190Z,105
2017-11-24T09:16:16.456Z,100
2017-11-24T09:17:16.527Z,105
2017-11-24T09:18:16.441Z,105
2017-11-24T09:19:16.160Z,105
2017-11-24T09:20:15.905Z,115
2017-11-24T09:21:16.176Z,120
2017-11-24T09:22:16.422Z,115
2017-11-24T09:23:16.734Z,120
2017-11-24T09:24:16.170Z,125
2017-11-24T09:25:16.448Z,125
2017-11-24T09:26:16.387Z,125
2017-11-24T09:27:16.130Z,135
2017-11-24T09:28:16.100Z,155
2017-11-24T09:29:16.194Z,185
2017-11-24T09:30:16.105Z,140
2017-11-24T09:31:16.607Z,135
2017-11-24T09:32:16.454Z,140
2017-11-24T09:33:16.398Z,140
2017-11-24T09:34:16.643Z,140
2017-11-24T09:35:16.756Z,140
2017-11-24T09:36:16.608Z,145
2017-11-24T09:37:16.421Z,150
2017-11-24T09:38:16.482Z,140
2017-11-24T09:39:16.388Z,130
2017-11-24T09:40:16.410Z,130
2017-11-24T09:41:16.333Z,130
2017-11-24T09:42:16.150Z,140
2017-11-24T09:43:16.345Z,160
2017-11-24T09:44:16.498Z,190
2017-11-24T09:45:16.071Z,200
2017-11-24T09:46:16.043Z,205
2017-11-24T09:47:16.304Z,210
2017-11-24T09:48:15.981Z,215
2017-11-24T09:49:16.276Z,220
2017-11-24T09:50:16.261Z,225
2017-11-24T09:51:16.046Z,225
2017-11-24T09:52:16.146Z,225
2017-11-24T09:53:16.237Z,220
2017-11-24T09:54:15.928Z,230
2017-11-24T09:55:16.234Z,220
2017-11-24T09:56:15.942Z,210
2017-11-24T09:57:16.211Z,215
2017-11-24T09:58:15.957Z,220
2017-11-24T09:59:15.935Z,220
2017-11-24T10:00:16.215Z,220
2017-11-24T10:01:16.255Z,235
2017-11-24T10:02:15.932Z,235
2017-11-24T10:03:16.151Z,240
2017-11-24T10:04:16.171Z,230
2017-11-24T10:05:16.148Z,235
2017-11-24T10:06:15.913Z,245
2017-11-24T10:07:15.923Z,245
2017-11-24T10:08:15.923Z,235
2017-11-24T10:09:15.881Z,210
2017-11-24T10:10:16.135Z,205
2017-11-24T10:11:16.133Z,200
2017-11-24T10:12:15.882Z,215
2017-11-24T10:13:16.146Z,215
2017-11-24T10:14:15.855Z,200
2017-11-24T10:15:16.233Z,195
2017-11-24T10:16:16.067Z,190
2017-11-24T10:17:15.833Z,180
2017-11-24T10:18:15.795Z,185
2017-11-24T10:19:16.136Z,200
2017-11-24T10:20:16.049Z,220
2017-11-24T10:21:15.773Z,190
2017-11-24T10:22:15.773Z,160
2017-11-24T10:23:16.033Z,135
2017-11-24T10:24:16.080Z,135
2017-11-24T10:25:16.038Z,135
2017-11-24T10:26:15.483Z,130
2017-11-24T10:27:16.097Z,145
2017-11-24T10:28:16.035Z,170
2017-11-24T10:29:16.029Z,180
2017-11-24T10:30:16.095Z,170
2017-11-24T10:31:16.031Z,160
2017-11-24T10:32:15.737Z,170
2017-11-24T10:33:15.997Z,180
2017-11-24T10:34:15.707Z,185
2017-11-24T10:35:15.721Z,175
2017-11-24T10:36:16.000Z,190
2017-11-24T10:37:15.993Z,215
2017-11-24T10:38:15.998Z,235
2017-11-24T10:39:15.711Z,230
2017-11-24T10:40:16.035Z,200
2017-11-24T10:41:16.002Z,210
2017-11-24T10:42:15.975Z,235
2017-11-24T10:43:15.960Z,255
2017-11-24T10:44:15.942Z,250
2017-11-24T10:45:15.964Z,230
2017-11-24T10:46:15.938Z,210
2017-11-24T10:47:15.947Z,205
2017-11-24T10:48:15.671Z,205
2017-11-24T10:49:15.949Z,205
2017-11-24T10:50:15.929Z,185
2017-11-24T10:51:15.887Z,185
2017-11-24T10:52:15.422Z,190
2017-11-24T10:53:15.886Z,205
2017-11-24T10:54:15.996Z,235
2017-11-24T10:55:15.920Z,245
2017-11-24T10:56:15.858Z,240
2017-11-24T10:57:15.868Z,250
2017-11-24T10:58:15.882Z,260
2017-11-24T10:59:15.876Z,250
2017-11-24T11:00:15.871Z,250
2017-11-24T11:01:15.882Z,230
2017-11-24T11:02:15.603Z,200
2017-11-24T11:03:15.606Z,175
2017-11-24T11:04:15.873Z,165
2017-11-24T11:05:15.837Z,160
2017-11-24T11:06:15.867Z,160
2017-11-24T11:07:15.841Z,170
2017-11-24T11:08:15.828Z,195
2017-11-24T11:09:15.803Z,205
2017-11-24T11:10:15.832Z,225
2017-11-24T11:11:15.808Z,235
2017-11-24T11:12:15.524Z,220
2017-11-24T11:13:15.819Z,205
2017-11-24T11:14:15.811Z,205
2017-11-24T11:15:15.511Z,195
2017-11-24T11:16:15.557Z,185
2017-11-24T11:17:15.524Z,190
2017-11-24T11:18:15.795Z,200
2017-11-24T11:19:15.761Z,195
2017-11-24T11:20:15.792Z,190
2017-11-24T11:21:15.759Z,195
2017-11-24T11:22:15.512Z,190
2017-11-24T11:23:15.763Z,185
2017-11-24T11:24:15.750Z,180
2017-11-24T11:25:15.746Z,195
2017-11-24T11:26:15.735Z,210
2017-11-24T11:27:15.753Z,200
2017-11-24T11:28:15.728Z,195
2017-11-24T11:29:15.721Z,185
2017-11-24T11:30:15.466Z,190
2017-11-24T11:31:15.890Z,205
2017-11-24T11:32:15.445Z,205
2017-11-24T11:33:15.694Z,200
2017-11-24T11:34:15.725Z,200
2017-11-24T11:35:15.796Z,200
2017-11-24T11:36:15.675Z,200
2017-11-24T11:37:15.437Z,200
2017-11-24T11:38:15.178Z,205
2017-11-24T11:39:15.177Z,220
2017-11-24T11:40:15.671Z,240
2017-11-24T11:41:15.737Z,250
2017-11-24T11:42:15.413Z,230
2017-11-24T11:43:15.145Z,205
2017-11-24T11:44:15.671Z,195
2017-11-24T11:45:15.437Z,195
2017-11-24T11:46:15.642Z,200
2017-11-24T11:47:15.877Z,210
2017-11-24T11:48:15.681Z,225
2017-11-24T11:49:15.625Z,250
2017-11-24T11:50:15.632Z,270
2017-11-24T11:51:15.641Z,260
2017-11-24T11:52:15.411Z,245
2017-11-24T11:53:15.633Z,240
2017-11-24T11:54:15.632Z,225
2017-11-24T11:55:15.649Z,205
2017-11-24T11:56:15.595Z,205
2017-11-24T11:57:15.362Z,180
2017-11-24T11:58:15.617Z,165
2017-11-24T11:59:15.629Z,155
2017-11-24T12:00:15.336Z,165
2017-11-24T12:01:15.605Z,175
2017-11-24T12:02:15.367Z,185
2017-11-24T12:03:15.552Z,190
2017-11-24T12:04:15.315Z,190
2017-11-24T12:05:15.568Z,195
2017-11-24T12:06:15.568Z,195
2017-11-24T12:07:15.543Z,175
2017-11-24T12:08:15.327Z,150
2017-11-24T12:09:15.551Z,130
2017-11-24T12:10:15.279Z,135
2017-11-24T12:11:15.557Z,140
2017-11-24T12:12:15.284Z,155
2017-11-24T12:13:15.543Z,170
2017-11-24T12:14:15.532Z,170
2017-11-24T12:15:15.007Z,170
2017-11-24T12:16:15.264Z,165
2017-11-24T12:17:15.610Z,145
2017-11-24T12:18:15.558Z,125
2017-11-24T12:19:15.376Z,100
2017-11-24T12:20:15.855Z,95
2017-11-24T12:21:15.831Z,105
2017-11-24T12:22:15.674Z,95
2017-11-24T12:23:15.334Z,95
2017-11-24T12:24:15.731Z,95
2017-11-24T12:25:15.585Z,100
2017-11-24T12:26:15.234Z,100
2017-11-24T12:27:15.689Z,105
2017-11-24T12:28:15.332Z,105
2017-11-24T12:29:15.509Z,110
2017-11-24T12:30:15.559Z,105
2017-11-24T12:31:15.539Z,100
2017-11-24T12:32:15.580Z,100
2017-11-24T12:33:15.616Z,115
2017-11-24T12:34:14.951Z,120
2017-11-24T12:35:15.497Z,135
2017-11-24T12:36:15.220Z,140
2017-11-24T12:37:15.456Z,140
2017-11-24T12:38:15.179Z,135
2017-11-24T12:39:15.192Z,135
2017-11-24T12:40:15.490Z,140
2017-11-24T12:41:15.522Z,140
2017-11-24T12:42:15.391Z,130
2017-11-24T12:43:15.427Z,115
2017-11-24T12:44:15.144Z,110
2017-11-24T12:45:15.392Z,110
2017-11-24T12:46:15.383Z,105
2017-11-24T12:47:15.368Z,110
2017-11-24T12:48:15.105Z,105
2017-11-24T12:49:15.387Z,110
2017-11-24T12:50:15.105Z,110
2017-11-24T12:51:15.367Z,100
2017-11-24T12:52:15.093Z,95
2017-11-24T12:53:15.091Z,95
2017-11-24T12:54:15.157Z,85
2017-11-24T12:55:15.327Z,80
2017-11-24T12:56:15.356Z,80
2017-11-24T12:57:15.310Z,80
2017-11-24T12:58:15.086Z,80
2017-11-24T12:59:15.303Z,80
2017-11-24T13:00:15.054Z,80
2017-11-24T13:01:15.310Z,80
2017-11-24T13:02:15.291Z,80
2017-11-24T13:03:15.320Z,80
2017-11-24T13:04:15.029Z,70
2017-11-24T13:05:15.281Z,65
2017-11-24T13:06:15.022Z,60
2017-11-24T13:07:15.007Z,65
2017-11-24T13:08:15.247Z,70
2017-11-24T13:09:15.263Z,70
2017-11-24T13:10:15.017Z,70
2017-11-24T13:11:15.274Z,75
2017-11-24T13:12:14.995Z,75
2017-11-24T13:13:15.224Z,85
2017-11-24T13:14:15.263Z,85
2017-11-24T13:15:14.984Z,95
2017-11-24T13:16:15.213Z,95
2017-11-24T13:17:15.264Z,95
2017-11-24T13:18:15.209Z,90
2017-11-24T13:19:15.196Z,80
2017-11-24T13:20:15.260Z,65
2017-11-24T13:21:15.204Z,45
2017-11-24T13:22:15.195Z,30
2017-11-24T13:23:15.180Z,30
2017-11-24T13:24:15.164Z,30
2017-11-24T13:25:15.190Z,30
2017-11-24T13:26:15.175Z,25
2017-11-24T13:27:14.889Z,15
2017-11-24T13:28:15.467Z,15
2017-11-24T13:29:15.179Z,15
2017-11-24T13:30:15.121Z,15
2017-11-24T13:31:15.130Z,15
2017-11-24T13:32:14.921Z,15
2017-11-24T13:33:14.845Z,10
2017-11-24T13:34:14.598Z,10
2017-11-24T13:35:15.152Z,10
2017-11-24T13:36:15.103Z,10
2017-11-24T13:37:15.102Z,15
2017-11-24T13:38:15.088Z,15
2017-11-24T13:39:14.910Z,15
2017-11-24T13:40:15.087Z,15
2017-11-24T13:41:14.829Z,10
2017-11-24T13:42:15.081Z,10
2017-11-24T13:43:15.066Z,15
2017-11-24T13:44:14.800Z,25
2017-11-24T13:45:15.062Z,35
2017-11-24T13:46:15.045Z,35
2017-11-24T13:47:15.031Z,50
2017-11-24T13:48:14.777Z,35
2017-11-24T13:49:15.259Z,30
2017-11-24T13:50:15.021Z,30
2017-11-24T13:51:15.047Z,25
2017-11-24T13:52:15.014Z,25
2017-11-24T13:53:15.001Z,25
2017-11-24T13:54:15.009Z,20
2017-11-24T13:55:15.010Z,20
2017-11-24T13:56:14.742Z,20
2017-11-24T13:57:14.983Z,15
2017-11-24T13:58:14.968Z,15
2017-11-24T13:59:15.016Z,15
2017-11-24T14:00:15.207Z,10
2017-11-24T14:01:14.968Z,10
2017-11-24T14:02:14.998Z,10
2017-11-24T14:03:14.987Z,10
2017-11-24T14:04:14.684Z,10
2017-11-24T14:05:14.937Z,10
2017-11-24T14:06:14.957Z,10
2017-11-24T14:07:14.939Z,15
2017-11-24T14:08:14.710Z,15
2017-11-24T14:09:14.653Z,10
2017-11-24T14:10:15.047Z,5
2017-11-24T14:11:15.010Z,10
2017-11-24T14:12:14.956Z,10
2017-11-24T14:13:15.154Z,5
2017-11-24T14:14:14.999Z,5
2017-11-24T14:15:15.146Z,5
2017-11-24T14:16:14.438Z,5
2017-11-24T14:17:14.944Z,5
2017-11-24T14:18:14.965Z,5
2017-11-24T14:19:14.724Z,5
2017-11-24T14:20:14.639Z,5